createdAt,value
2017-10-11T00:00:35.580Z,2.67
2017-10-11T00:03:03.034Z,2.80
2017-10-11T00:05:30.598Z,2.60
2017-10-11T00:07:58.055Z,2.97
2017-10-11T00:10:25.514Z,2.60
2017-10-11T00:12:53.072Z,2.87
2017-10-11T00:15:20.534Z,2.73
2017-10-11T00:17:48.000Z,3.03
2017-10-11T00:20:15.470Z,3.17
2017-10-11T00:22:42.921Z,3.07
2017-10-11T00:25:10.370Z,2.47
2017-10-11T00:27:37.825Z,3.10
2017-10-11T00:30:05.277Z,3.53
2017-10-11T00:32:32.738Z,3.67
2017-10-11T00:35:00.201Z,3.57
2017-10-11T00:37:29.161Z,3.90
2017-10-11T00:39:56.621Z,3.50
2017-10-11T00:42:24.078Z,4.77
2017-10-11T00:44:51.516Z,4.00
2017-10-11T00:47:19.019Z,4.63
2017-10-11T00:49:46.470Z,6.33
2017-10-11T00:52:13.928Z,6.47
2017-10-11T00:54:41.382Z,6.63
2017-10-11T00:57:08.850Z,7.50
2017-10-11T00:59:36.298Z,8.70
2017-10-11T01:02:03.849Z,7.30
2017-10-11T01:04:31.317Z,10.40
2017-10-11T01:06:58.790Z,10.27
2017-10-11T01:09:26.329Z,11.27
2017-10-11T01:11:53.794Z,11.77
2017-10-11T01:14:21.250Z,13.73
2017-10-11T01:16:48.713Z,10.60
2017-10-11T01:19:16.932Z,11.50
2017-10-11T01:21:44.422Z,11.10
2017-10-11T01:24:11.877Z,11.20
2017-10-11T01:26:39.344Z,10.37
2017-10-11T01:29:07.557Z,9.17
2017-10-11T01:31:35.023Z,8.60
2017-10-11T01:34:02.483Z,6.17
2017-10-11T01:36:29.984Z,8.50
2017-10-11T01:38:57.445Z,8.97
2017-10-11T01:41:24.995Z,8.77
2017-10-11T01:43:52.457Z,10.10
2017-10-11T01:46:19.910Z,10.70
2017-10-11T01:48:47.378Z,11.27
2017-10-11T01:51:16.338Z,12.07
2017-10-11T01:53:43.826Z,11.40
2017-10-11T01:56:11.273Z,8.73
2017-10-11T01:58:38.737Z,10.93
2017-10-11T02:01:06.193Z,8.80
2017-10-11T02:03:33.658Z,11.80
2017-10-11T02:06:01.107Z,11.37
2017-10-11T02:08:28.580Z,10.80
2017-10-11T02:10:56.040Z,11.37
2017-10-11T02:13:23.493Z,10.57
2017-10-11T02:15:51.010Z,11.30
2017-10-11T02:18:18.463Z,8.73
2017-10-11T02:20:45.919Z,7.47
2017-10-11T02:23:13.378Z,7.80
2017-10-11T02:25:40.828Z,6.30
2017-10-11T02:28:08.281Z,7.47
2017-10-11T02:30:35.739Z,5.90
2017-10-11T02:33:03.198Z,5.97
2017-10-11T02:35:30.658Z,5.60
2017-10-11T02:37:58.139Z,5.77
2017-10-11T02:40:25.597Z,5.90
2017-10-11T02:42:53.051Z,6.37
2017-10-11T02:45:20.519Z,5.73
2017-10-11T02:47:48.064Z,5.00
2017-10-11T02:50:15.630Z,6.17
2017-10-11T02:52:43.181Z,6.10
2017-10-11T02:55:10.645Z,5.93
2017-10-11T02:57:38.092Z,6.27
2017-10-11T03:00:05.549Z,6.80
2017-10-11T03:02:33.010Z,6.50
2017-10-11T03:05:00.461Z,6.03
2017-10-11T03:07:27.912Z,5.03
2017-10-11T03:09:55.370Z,4.63
2017-10-11T03:12:22.837Z,5.27
2017-10-11T03:14:50.298Z,4.50
2017-10-11T03:17:17.748Z,4.20
2017-10-11T03:19:45.212Z,5.10
2017-10-11T03:22:12.661Z,5.43
2017-10-11T03:24:40.129Z,4.60
2017-10-11T03:27:07.587Z,4.13
2017-10-11T03:29:35.046Z,4.80
2017-10-11T03:32:02.505Z,4.60
2017-10-11T03:34:31.494Z,4.47
2017-10-11T03:36:58.948Z,4.37
2017-10-11T03:39:26.420Z,3.90
2017-10-11T03:41:53.866Z,5.70
2017-10-11T03:44:21.335Z,3.70
2017-10-11T03:46:48.782Z,4.40
2017-10-11T03:49:16.242Z,4.37
2017-10-11T03:51:43.690Z,5.00
2017-10-11T03:54:11.145Z,4.27
2017-10-11T03:56:38.604Z,5.60
2017-10-11T03:59:06.058Z,5.27
2017-10-11T04:01:33.505Z,5.53
2017-10-11T04:04:00.965Z,5.60
2017-10-11T04:06:28.421Z,6.40
2017-10-11T04:08:55.870Z,6.00
2017-10-11T04:11:23.437Z,5.03
2017-10-11T04:13:50.885Z,6.37
2017-10-11T04:16:18.341Z,5.80
2017-10-11T04:18:45.797Z,6.23
2017-10-11T04:21:13.255Z,5.70
2017-10-11T04:23:40.707Z,5.80
2017-10-11T04:26:08.169Z,5.33
2017-10-11T04:28:35.630Z,4.53
2017-10-11T04:31:03.094Z,4.90
2017-10-11T04:33:30.545Z,4.70
2017-10-11T04:35:58.008Z,5.70
2017-10-11T04:38:25.445Z,5.70
2017-10-11T04:40:52.915Z,3.57
2017-10-11T04:43:20.356Z,6.00
2017-10-11T04:45:47.819Z,5.20
2017-10-11T04:48:15.265Z,4.60
2017-10-11T04:50:42.713Z,4.40
2017-10-11T04:53:10.170Z,4.70
2017-10-11T04:55:37.629Z,5.50
2017-10-11T04:58:05.115Z,5.37
2017-10-11T05:00:32.585Z,5.47
2017-10-11T05:03:00.027Z,5.60
2017-10-11T05:05:27.498Z,5.77
2017-10-11T05:07:54.954Z,5.20
2017-10-11T05:10:22.509Z,5.30
2017-10-11T05:12:49.966Z,5.17
2017-10-11T05:15:17.408Z,4.60
2017-10-11T05:17:44.880Z,4.70
2017-10-11T05:20:12.325Z,4.20
2017-10-11T05:22:39.788Z,4.37
2017-10-11T05:25:07.233Z,6.50
2017-10-11T05:27:34.802Z,5.13
2017-10-11T05:30:02.259Z,5.73
2017-10-11T05:32:29.709Z,5.73
2017-10-11T05:34:57.159Z,5.80
2017-10-11T05:37:24.621Z,6.37
2017-10-11T05:39:52.187Z,5.87
2017-10-11T05:42:19.654Z,5.67
2017-10-11T05:44:47.211Z,4.40
2017-10-11T05:47:14.682Z,5.90
2017-10-11T05:49:42.133Z,6.80
2017-10-11T05:52:09.682Z,7.50
2017-10-11T05:54:37.142Z,7.03
2017-10-11T05:57:04.591Z,6.40
2017-10-11T05:59:32.060Z,8.07
2017-10-11T06:01:59.607Z,6.17
2017-10-11T06:04:27.068Z,6.40
2017-10-11T06:06:54.612Z,5.93
2017-10-11T06:09:22.071Z,5.40
2017-10-11T06:11:49.644Z,5.87
2017-10-11T06:14:17.099Z,6.30
2017-10-11T06:16:44.550Z,6.10
2017-10-11T06:19:12.005Z,5.30
2017-10-11T06:21:39.567Z,5.43
2017-10-11T06:24:07.123Z,8.50
2017-10-11T06:26:34.582Z,9.00
2017-10-11T06:29:02.039Z,9.47
2017-10-11T06:31:29.585Z,6.40
2017-10-11T06:33:57.037Z,6.50
2017-10-11T06:36:24.502Z,4.17
2017-10-11T06:38:51.952Z,5.20
2017-10-11T06:41:19.430Z,6.20
2017-10-11T06:43:46.882Z,5.47
2017-10-11T06:46:14.433Z,6.40
2017-10-11T06:48:41.892Z,6.30
2017-10-11T06:51:09.346Z,5.87
2017-10-11T06:53:36.801Z,4.93
2017-10-11T06:56:04.262Z,4.73
2017-10-11T06:58:31.717Z,4.13
2017-10-11T07:00:59.175Z,4.23
2017-10-11T07:03:26.637Z,3.50
2017-10-11T07:05:54.096Z,3.83
2017-10-11T07:08:21.555Z,3.40
2017-10-11T07:10:49.765Z,3.60
2017-10-11T07:13:17.228Z,4.20
2017-10-11T07:15:45.446Z,2.80
2017-10-11T07:18:12.917Z,3.23
2017-10-11T07:20:40.378Z,3.70
2017-10-11T07:23:07.833Z,3.80
2017-10-11T07:25:35.290Z,4.07
2017-10-11T07:28:02.747Z,3.30
2017-10-11T07:30:30.207Z,3.83
2017-10-11T07:32:57.661Z,3.60
2017-10-11T07:35:25.115Z,3.30
2017-10-11T07:37:53.325Z,3.63
2017-10-11T07:40:20.785Z,3.90
2017-10-11T07:42:48.299Z,4.77
2017-10-11T07:45:15.767Z,2.87
2017-10-11T07:47:43.223Z,2.53
2017-10-11T07:50:10.677Z,4.07
2017-10-11T07:52:38.134Z,3.20
2017-10-11T07:55:05.589Z,2.90
2017-10-11T07:57:33.046Z,2.93
2017-10-11T08:00:00.599Z,3.27
2017-10-11T08:02:28.057Z,2.57
2017-10-11T08:04:55.513Z,2.47
2017-10-11T08:07:22.970Z,2.20
2017-10-11T08:09:50.527Z,2.40
2017-10-11T08:12:17.984Z,2.83
2017-10-11T08:14:45.448Z,2.77
2017-10-11T08:17:12.902Z,2.53
2017-10-11T08:19:40.451Z,2.60
2017-10-11T08:22:08.010Z,2.00
2017-10-11T08:24:35.470Z,2.60
2017-10-11T08:27:02.923Z,2.53
2017-10-11T08:29:30.381Z,2.30
2017-10-11T08:31:57.838Z,2.20
2017-10-11T08:34:25.398Z,2.07
2017-10-11T08:36:52.959Z,1.83
2017-10-11T08:39:20.522Z,2.10
2017-10-11T08:41:47.977Z,1.87
2017-10-11T08:44:15.437Z,1.93
2017-10-11T08:46:42.905Z,1.87
2017-10-11T08:49:11.135Z,2.00
2017-10-11T08:51:38.594Z,1.30
2017-10-11T08:54:06.046Z,1.60
2017-10-11T08:56:33.529Z,1.60
2017-10-11T08:59:00.982Z,2.07
2017-10-11T09:01:28.434Z,1.47
2017-10-11T09:03:55.886Z,1.63
2017-10-11T09:06:23.354Z,1.53
2017-10-11T09:08:50.809Z,1.50
2017-10-11T09:11:18.369Z,1.43
2017-10-11T09:13:45.821Z,1.70
2017-10-11T09:16:13.282Z,1.50
2017-10-11T09:18:40.736Z,1.80
2017-10-11T09:21:08.196Z,1.60
2017-10-11T09:23:35.666Z,1.60
2017-10-11T09:26:03.121Z,1.10
2017-10-11T09:28:30.574Z,1.57
2017-10-11T09:30:58.039Z,1.73
2017-10-11T09:33:25.484Z,1.40
2017-10-11T09:35:52.947Z,1.50
2017-10-11T09:38:20.406Z,1.73
2017-10-11T09:40:47.870Z,1.43
2017-10-11T09:43:15.324Z,1.60
2017-10-11T09:45:42.773Z,1.70
2017-10-11T09:48:10.230Z,1.40
2017-10-11T09:50:37.677Z,1.40
2017-10-11T09:53:05.134Z,1.67
2017-10-11T09:55:32.587Z,1.60
2017-10-11T09:58:00.151Z,1.47
2017-10-11T10:00:27.602Z,1.80
2017-10-11T10:02:55.057Z,1.70
2017-10-11T10:05:22.505Z,1.80
2017-10-11T10:07:50.077Z,1.70
2017-10-11T10:10:17.526Z,1.20
2017-10-11T10:12:44.990Z,1.30
2017-10-11T10:15:12.436Z,1.60
2017-10-11T10:17:40.013Z,1.50
2017-10-11T10:20:07.472Z,1.60
2017-10-11T10:22:34.925Z,1.30
2017-10-11T10:25:02.373Z,1.10
2017-10-11T10:27:29.950Z,1.40
2017-10-11T10:29:57.502Z,1.43
2017-10-11T10:32:24.982Z,1.40
2017-10-11T10:34:52.434Z,1.20
2017-10-11T10:37:19.887Z,1.20
2017-10-11T10:39:47.436Z,1.50
2017-10-11T10:42:14.906Z,1.60
2017-10-11T10:44:42.363Z,1.40
2017-10-11T10:47:09.900Z,1.60
2017-10-11T10:49:37.352Z,1.20
2017-10-11T10:52:04.813Z,1.30
2017-10-11T10:54:32.271Z,1.43
2017-10-11T10:56:59.734Z,1.40
2017-10-11T10:59:27.207Z,1.10
2017-10-11T11:01:54.658Z,1.50
2017-10-11T11:04:22.127Z,1.20
2017-10-11T11:06:50.383Z,1.37
2017-10-11T11:09:17.857Z,1.40
2017-10-11T11:11:46.809Z,1.30
2017-10-11T11:14:14.386Z,1.20
2017-10-11T11:16:41.841Z,1.43
2017-10-11T11:19:09.396Z,1.10
2017-10-11T11:21:36.849Z,1.37
2017-10-11T11:24:04.336Z,1.10
2017-10-11T11:26:32.589Z,1.63
2017-10-11T11:29:00.046Z,1.20
2017-10-11T11:31:27.510Z,1.63
2017-10-11T11:33:56.474Z,1.60
2017-10-11T11:36:23.937Z,1.30
2017-10-11T11:38:51.389Z,2.40
2017-10-11T11:41:18.846Z,1.63
2017-10-11T11:43:46.307Z,1.30
2017-10-11T11:46:13.762Z,1.13
2017-10-11T11:48:41.222Z,1.73
2017-10-11T11:51:08.682Z,1.20
2017-10-11T11:53:36.247Z,1.10
2017-10-11T11:56:03.709Z,1.03
2017-10-11T11:58:31.163Z,1.30
2017-10-11T12:00:58.625Z,1.30
2017-10-11T12:03:26.174Z,1.20
2017-10-11T12:05:53.633Z,1.30
2017-10-11T12:08:21.196Z,1.40
2017-10-11T12:10:48.654Z,1.30
2017-10-11T12:13:16.122Z,1.67
2017-10-11T12:15:43.587Z,1.40
2017-10-11T12:18:11.041Z,1.40
2017-10-11T12:20:38.565Z,1.00
2017-10-11T12:23:06.010Z,1.40
2017-10-11T12:25:33.462Z,1.10
2017-10-11T12:28:00.917Z,1.30
2017-10-11T12:30:28.379Z,1.20
2017-10-11T12:32:55.870Z,1.00
2017-10-11T12:35:23.431Z,1.10
2017-10-11T12:37:50.889Z,1.40
2017-10-11T12:40:18.354Z,1.50
2017-10-11T12:42:45.814Z,1.10
2017-10-11T12:45:13.263Z,1.37
2017-10-11T12:47:40.801Z,1.27
2017-10-11T12:50:08.389Z,1.40
2017-10-11T12:52:35.842Z,1.30
2017-10-11T12:55:03.286Z,1.30
2017-10-11T12:57:30.754Z,1.27
2017-10-11T12:59:58.208Z,1.30
2017-10-11T13:02:25.748Z,1.57
2017-10-11T13:04:53.306Z,1.20
2017-10-11T13:07:20.766Z,1.60
2017-10-11T13:09:48.225Z,1.33
2017-10-11T13:12:15.777Z,1.30
2017-10-11T13:14:43.235Z,1.23
2017-10-11T13:17:10.691Z,1.53
2017-10-11T13:19:38.148Z,1.60
2017-10-11T13:22:05.717Z,1.50
2017-10-11T13:24:33.195Z,1.60
2017-10-11T13:27:00.730Z,1.40
2017-10-11T13:29:28.180Z,1.57
2017-10-11T13:31:55.637Z,1.73
2017-10-11T13:34:23.090Z,1.30
2017-10-11T13:36:50.555Z,1.43
2017-10-11T13:39:18.000Z,1.50
2017-10-11T13:41:45.567Z,1.40
2017-10-11T13:44:13.017Z,1.30
2017-10-11T13:46:40.581Z,1.27
2017-10-11T13:49:08.138Z,1.20
2017-10-11T13:51:35.581Z,1.40
2017-10-11T13:54:03.046Z,1.40
2017-10-11T13:56:30.498Z,1.43
2017-10-11T13:58:57.962Z,1.30
2017-10-11T14:01:25.413Z,1.23
2017-10-11T14:03:52.870Z,1.17
2017-10-11T14:06:20.343Z,1.60
2017-10-11T14:08:47.794Z,1.40
2017-10-11T14:11:15.243Z,1.30
2017-10-11T14:13:42.701Z,1.70
2017-10-11T14:16:10.157Z,1.83
2017-10-11T14:18:37.635Z,1.20
2017-10-11T14:21:05.073Z,1.30
2017-10-11T14:23:32.546Z,2.30
2017-10-11T14:25:59.996Z,1.90
2017-10-11T14:28:27.453Z,1.57
2017-10-11T14:30:54.897Z,1.43
2017-10-11T14:33:22.362Z,1.70
2017-10-11T14:35:49.821Z,1.40
2017-10-11T14:38:17.288Z,1.30
2017-10-11T14:40:44.741Z,1.47
2017-10-11T14:43:12.222Z,1.20
2017-10-11T14:45:40.437Z,1.20
2017-10-11T14:48:07.892Z,1.43
2017-10-11T14:50:35.386Z,1.50
2017-10-11T14:53:02.854Z,1.20
2017-10-11T14:55:30.306Z,1.40
2017-10-11T14:57:57.854Z,1.20
2017-10-11T15:00:25.327Z,1.50
2017-10-11T15:02:52.782Z,1.63
2017-10-11T15:05:21.005Z,1.60
2017-10-11T15:07:48.471Z,1.50
2017-10-11T15:10:15.921Z,1.53
2017-10-11T15:12:43.385Z,1.60
2017-10-11T15:15:10.844Z,1.50
2017-10-11T15:17:38.324Z,1.40
2017-10-11T15:20:05.790Z,1.60
2017-10-11T15:22:33.238Z,1.70
2017-10-11T15:25:00.701Z,1.60
2017-10-11T15:27:28.153Z,1.90
2017-10-11T15:29:55.608Z,1.40
2017-10-11T15:32:23.071Z,1.63
2017-10-11T15:34:50.528Z,1.50
2017-10-11T15:37:17.981Z,1.60
2017-10-11T15:39:45.441Z,1.50
2017-10-11T15:42:12.986Z,2.00
2017-10-11T15:44:40.445Z,2.03
2017-10-11T15:47:08.010Z,1.80
2017-10-11T15:49:35.465Z,1.40
2017-10-11T15:52:03.023Z,1.53
2017-10-11T15:54:30.486Z,1.60
2017-10-11T15:56:58.757Z,1.80
2017-10-11T15:59:26.210Z,1.67
2017-10-11T16:01:53.689Z,1.90
2017-10-11T16:04:22.640Z,1.80
2017-10-11T16:06:50.126Z,2.37
2017-10-11T16:09:17.582Z,1.60
2017-10-11T16:11:45.038Z,1.80
2017-10-11T16:14:12.497Z,2.00
2017-10-11T16:16:39.954Z,1.70
2017-10-11T16:19:07.409Z,1.90
2017-10-11T16:21:34.882Z,2.00
2017-10-11T16:24:03.098Z,1.60
2017-10-11T16:26:30.557Z,1.67
2017-10-11T16:28:58.014Z,1.80
2017-10-11T16:31:25.479Z,1.80
2017-10-11T16:33:52.929Z,3.00
2017-10-11T16:36:20.398Z,2.73
2017-10-11T16:38:47.837Z,3.30
2017-10-11T16:41:15.323Z,2.60
2017-10-11T16:43:42.774Z,2.30
2017-10-11T16:46:10.239Z,2.00
2017-10-11T16:48:37.802Z,2.67
2017-10-11T16:51:05.262Z,2.80
2017-10-11T16:53:32.717Z,2.30
2017-10-11T16:56:00.165Z,2.50
2017-10-11T16:58:27.617Z,2.30
2017-10-11T17:00:55.083Z,2.80
2017-10-11T17:03:22.530Z,2.80
2017-10-11T17:05:49.995Z,2.80
2017-10-11T17:08:17.446Z,2.30
2017-10-11T17:10:44.907Z,3.30
2017-10-11T17:13:12.474Z,2.70
2017-10-11T17:15:40.026Z,3.57
2017-10-11T17:18:07.586Z,3.83
2017-10-11T17:20:35.037Z,2.80
2017-10-11T17:23:02.493Z,2.50
2017-10-11T17:25:29.945Z,2.40
2017-10-11T17:27:57.402Z,3.13
2017-10-11T17:30:24.857Z,2.83
2017-10-11T17:32:52.432Z,4.00
2017-10-11T17:35:19.887Z,3.33
2017-10-11T17:37:47.337Z,4.53
2017-10-11T17:40:14.785Z,5.00
2017-10-11T17:42:42.258Z,5.23
2017-10-11T17:45:09.705Z,4.00
2017-10-11T17:47:37.153Z,5.10
2017-10-11T17:50:04.617Z,4.00
2017-10-11T17:52:32.081Z,7.30
2017-10-11T17:54:59.641Z,4.00
2017-10-11T17:57:27.103Z,3.60
2017-10-11T17:59:54.557Z,4.97
2017-10-11T18:02:22.022Z,3.87
2017-10-11T18:04:49.561Z,4.63
2017-10-11T18:07:17.121Z,4.70
2017-10-11T18:09:44.681Z,6.30
2017-10-11T18:12:12.159Z,12.87
2017-10-11T18:14:39.606Z,5.80
2017-10-11T18:17:07.077Z,6.07
2017-10-11T18:19:34.525Z,6.70
2017-10-11T18:22:02.069Z,6.70
2017-10-11T18:24:29.518Z,5.33
2017-10-11T18:26:56.983Z,5.03
2017-10-11T18:29:24.541Z,5.27
2017-10-11T18:31:51.995Z,5.67
2017-10-11T18:34:19.554Z,6.23
2017-10-11T18:36:47.012Z,6.97
2017-10-11T18:39:14.465Z,5.50
2017-10-11T18:41:41.915Z,5.07
2017-10-11T18:44:09.366Z,6.77
2017-10-11T18:46:36.842Z,7.03
2017-10-11T18:49:04.300Z,6.83
2017-10-11T18:51:31.853Z,7.73
2017-10-11T18:53:59.319Z,7.80
2017-10-11T18:56:26.768Z,6.97
2017-10-11T18:58:54.225Z,8.30
2017-10-11T19:01:21.787Z,8.20
2017-10-11T19:03:49.251Z,8.70
2017-10-11T19:06:16.697Z,10.03
2017-10-11T19:08:44.162Z,8.13
2017-10-11T19:11:11.613Z,9.83
2017-10-11T19:13:39.078Z,10.13
2017-10-11T19:16:06.546Z,11.33
2017-10-11T19:18:33.993Z,11.10
2017-10-11T19:21:01.466Z,11.97
2017-10-11T19:23:28.970Z,13.67
2017-10-11T19:25:56.437Z,14.57
2017-10-11T19:28:23.913Z,14.67
2017-10-11T19:30:51.387Z,11.40
2017-10-11T19:33:18.846Z,10.87
2017-10-11T19:35:46.395Z,10.07
2017-10-11T19:38:13.850Z,8.80
2017-10-11T19:40:41.316Z,6.67
2017-10-11T19:43:08.766Z,6.63
2017-10-11T19:45:36.310Z,6.40
2017-10-11T19:48:03.761Z,7.40
2017-10-11T19:50:31.217Z,6.77
2017-10-11T19:52:58.670Z,6.50
2017-10-11T19:55:26.130Z,7.20
2017-10-11T19:57:53.586Z,8.73
2017-10-11T20:00:21.623Z,7.10
2017-10-11T20:02:49.082Z,10.90
2017-10-11T20:05:16.525Z,7.40
2017-10-11T20:07:43.990Z,7.37
2017-10-11T20:10:11.441Z,8.03
2017-10-11T20:12:38.954Z,8.67
2017-10-11T20:15:06.407Z,6.60
2017-10-11T20:17:33.967Z,6.10
2017-10-11T20:20:01.526Z,6.70
2017-10-11T20:22:28.983Z,6.67
2017-10-11T20:24:56.431Z,6.80
2017-10-11T20:27:23.881Z,6.97
2017-10-11T20:29:51.335Z,5.97
2017-10-11T20:32:18.794Z,6.57
2017-10-11T20:34:46.249Z,8.03
2017-10-11T20:37:13.817Z,7.40
2017-10-11T20:39:41.281Z,6.43
2017-10-11T20:42:08.837Z,7.67
2017-10-11T20:44:36.285Z,7.27
2017-10-11T20:47:03.851Z,9.17
2017-10-11T20:49:31.409Z,10.50
2017-10-11T20:51:58.868Z,9.40
2017-10-11T20:57:00.936Z,10.47
2017-10-11T20:59:28.396Z,10.07
2017-10-11T21:01:55.850Z,9.00
2017-10-11T21:04:23.306Z,8.60
2017-10-11T21:06:50.765Z,9.30
2017-10-11T21:09:18.225Z,9.97
2017-10-11T21:11:45.686Z,11.48
2017-10-11T21:14:13.152Z,11.27
2017-10-11T21:16:40.710Z,10.20
2017-10-11T21:19:08.177Z,10.50
2017-10-11T21:21:35.628Z,8.75
2017-10-11T21:24:03.178Z,9.50
2017-10-11T21:26:30.646Z,9.80
2017-10-11T21:28:59.610Z,9.30
2017-10-11T21:31:27.079Z,11.05
2017-10-11T21:33:54.546Z,10.17
2017-10-11T21:36:22.106Z,10.38
2017-10-11T21:38:49.567Z,11.02
2017-10-11T21:41:17.021Z,9.33
2017-10-11T21:43:44.494Z,10.10
2017-10-11T21:46:12.745Z,11.60
2017-10-11T21:48:40.212Z,11.12
2017-10-11T21:51:07.665Z,9.73
2017-10-11T21:53:35.230Z,8.68
2017-10-11T21:56:02.702Z,8.57
2017-10-11T21:58:30.926Z,9.13
2017-10-11T22:02:38.561Z,9.07
2017-10-11T22:05:07.529Z,7.95
2017-10-11T22:07:34.983Z,7.32
2017-10-11T22:10:02.478Z,8.75
2017-10-11T22:12:29.918Z,8.50
2017-10-11T22:14:57.380Z,9.40
2017-10-11T22:17:24.842Z,10.37
2017-10-11T22:19:52.314Z,9.40
2017-10-11T22:22:19.765Z,8.77
2017-10-11T22:24:48.005Z,10.95
2017-10-11T22:27:15.456Z,9.63
2017-10-11T22:29:42.922Z,9.90
2017-10-11T22:32:10.366Z,9.90
2017-10-11T22:34:37.830Z,10.67
2017-10-11T22:37:05.273Z,9.57
2017-10-11T22:39:32.734Z,11.63
2017-10-11T22:42:00.190Z,10.60
2017-10-11T22:44:27.672Z,11.63
2017-10-11T22:46:55.136Z,13.30
2017-10-11T22:49:22.614Z,12.40
2017-10-11T22:51:50.834Z,11.43
2017-10-11T22:54:18.294Z,13.27
2017-10-11T22:56:45.758Z,14.60
2017-10-11T22:59:13.227Z,14.48
2017-10-11T23:01:40.694Z,12.70
2017-10-11T23:04:08.162Z,11.60
2017-10-11T23:06:35.626Z,12.10
2017-10-11T23:09:03.091Z,11.30
2017-10-11T23:11:31.313Z,12.30
2017-10-11T23:13:58.765Z,11.80
2017-10-11T23:16:26.233Z,10.55
2017-10-11T23:18:53.693Z,10.32
2017-10-11T23:21:21.149Z,9.93
2017-10-11T23:23:48.630Z,9.02
2017-10-11T23:26:16.863Z,9.73
2017-10-11T23:28:44.350Z,9.93
2017-10-11T23:31:11.830Z,10.23
2017-10-11T23:33:39.275Z,8.83
2017-10-11T23:36:06.738Z,9.10
2017-10-11T23:38:34.197Z,9.25
2017-10-11T23:41:02.454Z,7.80
2017-10-11T23:43:29.911Z,9.30
2017-10-11T23:45:57.394Z,8.40
2017-10-11T23:48:25.645Z,9.18
2017-10-11T23:50:53.109Z,9.30
2017-10-11T23:53:20.583Z,8.57
2017-10-11T23:55:48.037Z,10.73
2017-10-11T23:58:16.274Z,9.18
